Nearby METAR Reports

 

EDNY - Friedrichshafen, Germany
Distance from station: ONO 32km
aktuell: 22.10.2019 01:20
geschlossene Wolkendecke
geschlossene Wolkendecke
 Wind von W
Wind: W 4 km/h
Temperatur: 13°C
Taupunkt: 12°C
Luftfeuchte: 94%
Luftdruck: 1023 hPa
Clouds: geschlossene Wolkendecke
Visibility: 10 km
Cloud details: geschlossene Wolkendecke 1311 m
2019/10/21 23:20 EDNY 212320Z AUTO 26002KT 9999 // OVC043/// 13/12 Q1023
LSZR - Rheineck/Altenrh, Switzerland
Distance from station: OSO 37km
aktuell: 22.10.2019 01:20
stark bewölkt
stark bewölkt
 Wind von W
Wind: W 7 km/h
Temperatur: 14°C
Taupunkt: 13°C
Luftfeuchte: 94%
Luftdruck: 1023 hPa
Clouds: stark bewölkt
Visibility: 7 km
Cloud details: stark bewölkt 366 m
stark bewölkt 549 m
2019/10/21 23:20 LSZR 212320Z AUTO 28004KT 7000 BKN012 BKN018 14/13 Q1023
LSMD - Dubendorf, Switzerland
Distance from station: SW 40km
aktuell: 22.10.2019 01:20
teilweise bewölkt
teilweise bewölkt
 Wind von calm
Wind: Windstill
Temperatur: 12°C
Taupunkt: 12°C
Luftfeuchte: 100%
Luftdruck: 1023 hPa
Clouds: teilweise bewölkt
Visibility: 6 km
Cloud details: Few Clouds 152 m
teilweise bewölkt 305 m
2019/10/21 23:20 LSMD 212320Z AUTO 00000KT 6000NDV FEW005 SCT010 12/12 Q1023 RMK
 
LSZH - Zurich-Kloten (a, Switzerland
Distance from station: WSW 44km
aktuell: 22.10.2019 01:20
stark bewölkt
stark bewölkt
 Wind von varies
Wind: varies 2 km/h
Temperatur: 12°C
Taupunkt: 12°C
Luftfeuchte: 100%
Luftdruck: 1023 hPa
Clouds: stark bewölkt
Visibility: 7 km
Cloud details: Few Clouds 91 m
stark bewölkt 853 m
2019/10/21 23:20 LSZH 212320Z VRB01KT 7000 FEW003 BKN028 12/12 Q1023 NOSIG
LOIH - Hohenems-Dornbir, Austria
Distance from station: OSO 51km
aktuell: 31.10.2016 17:00
NOT Current
geschlossene Wolkendecke
geschlossene Wolkendecke
 Wind von calm
Wind: Windstill
Temperatur: 10°C
Taupunkt: 9°C
Luftfeuchte: 94%
Luftdruck: 1026 hPa
Clouds: geschlossene Wolkendecke
Cloud details: geschlossene Wolkendecke 305 m
2016/10/31 16:00 LOIH 311600Z 00000KT 10KM OVC010ST 10/09 Q1026 RMK OVC
LSME - Emmen, Switzerland
Distance from station: SW 82km
aktuell: 22.10.2019 01:20
Mist, geschlossene Wolkendecke
Mist, geschlossene Wolkendecke
 Wind von NNO
Wind: NNO 6 km/h
Temperatur: 13°C
Taupunkt: 13°C
Luftfeuchte: 100%
Luftdruck: 1023 hPa
Zusammenfassung: Mist
Clouds: geschlossene Wolkendecke
Visibility: 5 km
Cloud details: Few Clouds 610 m
geschlossene Wolkendecke 732 m
2019/10/21 23:20 LSME 212320Z AUTO 03003KT 5000NDV BR FEW020 OVC024 13/13 Q1023 RMK
 
LSZC - Buochs, Switzerland
Distance from station: SW 89km
aktuell: 22.10.2019 01:20
Mist, geschlossene Wolkendecke
Mist, geschlossene Wolkendecke
 Wind von NNW
Wind: NNW 4 km/h
Temperatur: 14°C
Taupunkt: 13°C
Luftfeuchte: 94%
Luftdruck: 1023 hPa
Zusammenfassung: Mist
Clouds: geschlossene Wolkendecke
Visibility: 5 km
Cloud details: geschlossene Wolkendecke 671 m
2019/10/21 23:20 LSZC 212320Z AUTO 33002KT 4800 BR OVC022 14/13 Q1023
ETHL - Laupheim (ger-Ar, Germany
Distance from station: NO 92km
aktuell: 22.10.2019 01:20
teilweise bewölkt
teilweise bewölkt
 Wind von NNW
Wind: NNW 4 km/h
Temperatur: 11°C
Taupunkt: 10°C
Luftfeuchte: 94%
Luftdruck: 1023 hPa
Clouds: teilweise bewölkt
Visibility: 10 km
Cloud details: teilweise bewölkt 2743 m
2019/10/21 23:20 ETHL 212320Z 34002KT 9999 SCT090 11/10 Q1023 BLU+
EDJA - Memmingen Allgau, Germany
Distance from station: ONO 95km
aktuell: 22.10.2019 01:20
stark bewölkt
stark bewölkt
 Wind von calm
Wind: Windstill
Temperatur: 9°C
Taupunkt: 8°C
Luftfeuchte: 94%
Luftdruck: 1023 hPa
Clouds: stark bewölkt
Visibility: 7 km
Cloud details: Few Clouds 30 m
teilweise bewölkt 1067 m
stark bewölkt 5791 m
2019/10/21 23:20 EDJA 212320Z AUTO 00000KT 7000 // FEW001/// SCT035/// BKN190/// 09/08 Q1023
 
LSMA - Alpnach, Switzerland
Distance from station: SW 95km
aktuell: 22.10.2019 01:20
geschlossene Wolkendecke
geschlossene Wolkendecke
 Wind von varies
Wind: varies 4 km/h
Temperatur: 14°C
Taupunkt: 13°C
Luftfeuchte: 94%
Luftdruck: 1023 hPa
Clouds: geschlossene Wolkendecke
Visibility: 7 km
Cloud details: stark bewölkt 396 m
geschlossene Wolkendecke 549 m
2019/10/21 23:20 LSMA 212320Z AUTO VRB02KT 7000NDV BKN013 OVC018 14/13 Q1023 RMK